createdAt,value
2019-05-02T00:02:11.846Z,15.80
2019-05-02T00:04:42.440Z,15.80
2019-05-02T00:07:14.622Z,15.70
2019-05-02T00:09:48.581Z,15.60
2019-05-02T00:12:18.335Z,15.60
2019-05-02T00:14:49.439Z,15.50
2019-05-02T00:17:25.594Z,15.40
2019-05-02T00:19:52.509Z,15.40
2019-05-02T00:22:23.194Z,15.40
2019-05-02T00:24:53.636Z,15.30
2019-05-02T00:27:24.025Z,15.20
2019-05-02T00:29:58.665Z,15.20
2019-05-02T00:32:26.930Z,15.10
2019-05-02T00:34:57.326Z,15.00
2019-05-02T00:37:28.557Z,15.00
2019-05-02T00:39:58.998Z,15.00
2019-05-02T00:42:29.381Z,14.90
2019-05-02T00:44:59.796Z,14.90
2019-05-02T00:47:47.540Z,14.90
2019-05-02T00:50:14.972Z,14.80
2019-05-02T00:52:45.364Z,14.80
2019-05-02T00:55:15.794Z,14.80
2019-05-02T00:57:46.197Z,14.90
2019-05-02T01:00:18.349Z,14.90
2019-05-02T01:02:54.110Z,14.90
2019-05-02T01:05:24.708Z,15.00
2019-05-02T01:07:56.060Z,15.00
2019-05-02T01:10:27.324Z,15.10
2019-05-02T01:12:58.615Z,15.20
2019-05-02T01:15:29.244Z,15.20
2019-05-02T01:18:01.147Z,15.30
2019-05-02T01:20:31.754Z,15.30
2019-05-02T01:23:02.125Z,15.40
2019-05-02T01:25:32.521Z,15.40
2019-05-02T01:28:17.527Z,15.50
2019-05-02T01:31:02.760Z,15.50
2019-05-02T01:33:36.883Z,15.60
2019-05-02T01:36:08.536Z,15.60
2019-05-02T01:38:40.501Z,15.50
2019-05-02T01:41:10.904Z,15.60
2019-05-02T01:43:41.330Z,15.60
2019-05-02T01:46:11.858Z,15.60
2019-05-02T01:48:45.749Z,15.70
2019-05-02T01:51:15.007Z,15.70
2019-05-02T01:53:45.434Z,15.70
2019-05-02T01:56:15.856Z,15.60
2019-05-02T01:58:46.236Z,15.60
2019-05-02T02:01:21.437Z,15.50
2019-05-02T02:03:48.893Z,15.40
2019-05-02T02:06:19.420Z,15.30
2019-05-02T02:08:49.904Z,15.30
2019-05-02T02:11:20.361Z,15.20
2019-05-02T02:13:50.729Z,15.10
2019-05-02T02:16:22.905Z,15.00
2019-05-02T02:19:04.094Z,15.00
2019-05-02T02:21:34.933Z,14.90
2019-05-02T02:24:08.369Z,14.80
2019-05-02T02:26:38.775Z,14.70
2019-05-02T02:29:09.405Z,14.70
2019-05-02T02:31:46.321Z,14.60
2019-05-02T02:34:11.928Z,14.60
2019-05-02T02:36:43.812Z,14.50
2019-05-02T02:39:16.881Z,14.50
2019-05-02T02:41:52.411Z,14.50
2019-05-02T02:44:20.686Z,14.50
2019-05-02T02:46:52.649Z,14.50
2019-05-02T02:49:24.574Z,14.50
2019-05-02T02:51:57.924Z,14.40
2019-05-02T02:54:27.621Z,14.40
2019-05-02T02:56:58.106Z,14.50
2019-05-02T02:59:28.518Z,14.40
2019-05-02T03:02:08.989Z,14.50
2019-05-02T03:04:31.275Z,14.50
2019-05-02T03:07:01.651Z,14.50
2019-05-02T03:09:32.107Z,14.50
2019-05-02T03:12:22.339Z,14.50
2019-05-02T03:14:57.611Z,14.50
2019-05-02T03:17:28.690Z,14.50
2019-05-02T03:20:03.438Z,14.50
2019-05-02T03:22:34.840Z,14.50
2019-05-02T03:25:06.277Z,14.50
2019-05-02T03:27:39.757Z,14.50
2019-05-02T03:30:29.284Z,14.60
2019-05-02T03:33:03.536Z,14.60
2019-05-02T03:35:18.961Z,14.60
2019-05-02T03:37:51.343Z,14.60
2019-05-02T03:40:19.400Z,14.60
2019-05-02T03:42:49.804Z,14.70
2019-05-02T03:45:20.305Z,14.70
2019-05-02T03:47:50.974Z,14.80
2019-05-02T03:50:31.619Z,14.90
2019-05-02T03:52:53.525Z,14.90
2019-05-02T03:55:31.275Z,15.00
2019-05-02T03:57:57.594Z,15.00
2019-05-02T04:00:28.103Z,15.10
2019-05-02T04:03:00.168Z,15.20
2019-05-02T04:05:33.726Z,15.20
2019-05-02T04:08:04.072Z,15.30
2019-05-02T04:10:52.667Z,15.40
2019-05-02T04:13:19.069Z,15.40
2019-05-02T04:15:49.805Z,15.50
2019-05-02T04:18:21.505Z,15.50
2019-05-02T04:20:52.421Z,15.60
2019-05-02T04:23:27.986Z,15.60
2019-05-02T04:25:56.906Z,15.70
2019-05-02T04:28:29.038Z,15.70
2019-05-02T04:30:59.533Z,15.80
2019-05-02T04:33:34.691Z,15.90
2019-05-02T04:36:14.188Z,15.90
2019-05-02T04:38:46.612Z,16.00
2019-05-02T04:41:09.353Z,16.20
2019-05-02T04:43:54.414Z,16.30
2019-05-02T04:46:22.172Z,16.40
2019-05-02T04:48:49.767Z,16.70
2019-05-02T04:51:20.279Z,16.80
2019-05-02T04:53:50.058Z,16.90
2019-05-02T04:56:20.855Z,17.20
2019-05-02T04:58:51.312Z,17.40
2019-05-02T05:01:22.558Z,17.60
2019-05-02T05:03:58.253Z,17.80
2019-05-02T05:06:27.572Z,17.90
2019-05-02T05:08:58.446Z,18.00
2019-05-02T05:11:29.151Z,18.20
2019-05-02T05:14:00.399Z,18.40
2019-05-02T05:16:31.048Z,18.60
2019-05-02T05:19:01.493Z,18.90
2019-05-02T05:21:31.997Z,19.10
2019-05-02T05:24:03.952Z,19.30
2019-05-02T05:26:39.092Z,19.50
2019-05-02T05:29:08.316Z,19.70
2019-05-02T05:31:39.129Z,19.70
2019-05-02T05:34:09.839Z,19.80
2019-05-02T05:36:40.456Z,19.90
2019-05-02T05:39:11.808Z,20.20
2019-05-02T05:41:42.694Z,20.20
2019-05-02T05:44:14.472Z,20.40
2019-05-02T05:46:46.965Z,20.60
2019-05-02T05:49:20.338Z,20.90
2019-05-02T05:51:49.550Z,21.20
2019-05-02T05:54:21.374Z,21.50
2019-05-02T05:56:51.869Z,21.90
2019-05-02T05:59:28.296Z,22.30
2019-05-02T06:01:57.766Z,22.90
2019-05-02T06:04:32.640Z,23.70
2019-05-02T06:07:03.141Z,24.30
2019-05-02T06:09:32.474Z,24.70
2019-05-02T06:12:03.028Z,25.00
2019-05-02T06:14:34.617Z,25.10
2019-05-02T06:17:05.351Z,25.50
2019-05-02T06:19:35.918Z,25.90
2019-05-02T06:22:06.438Z,26.20
2019-05-02T06:24:36.826Z,26.90
2019-05-02T06:27:08.073Z,27.40
2019-05-02T06:29:38.469Z,28.00
2019-05-02T06:32:08.996Z,28.80
2019-05-02T06:34:46.610Z,29.80
2019-05-02T06:37:13.572Z,30.50
2019-05-02T06:39:43.651Z,31.30
2019-05-02T06:42:15.521Z,32.50
2019-05-02T06:44:45.947Z,33.40
2019-05-02T06:47:16.474Z,34.00
2019-05-02T06:49:46.859Z,34.60
2019-05-02T06:52:17.389Z,34.70
2019-05-02T06:54:47.777Z,34.30
2019-05-02T06:57:24.105Z,34.80
2019-05-02T06:59:54.622Z,35.70
2019-05-02T07:02:28.125Z,37.00
2019-05-02T07:04:57.388Z,37.20
2019-05-02T07:07:31.401Z,37.60
2019-05-02T07:09:59.997Z,38.70
2019-05-02T07:12:30.675Z,39.30
2019-05-02T07:15:01.698Z,39.10
2019-05-02T07:17:38.400Z,39.90
2019-05-02T07:20:10.064Z,41.20
2019-05-02T07:22:40.807Z,41.90
2019-05-02T07:25:11.872Z,42.10
2019-05-02T07:27:43.057Z,42.40
2019-05-02T07:30:13.795Z,42.60
2019-05-02T07:32:44.197Z,43.40
2019-05-02T07:35:19.013Z,43.40
2019-05-02T07:37:48.879Z,43.50
2019-05-02T07:40:19.067Z,43.50
2019-05-02T07:42:49.469Z,43.40
2019-05-02T07:45:20.149Z,44.00
2019-05-02T07:47:50.573Z,44.40
2019-05-02T07:50:21.124Z,43.90
2019-05-02T07:52:51.516Z,44.70
2019-05-02T07:55:23.405Z,45.30
2019-05-02T07:57:53.422Z,45.90
2019-05-02T08:00:24.244Z,46.60
2019-05-02T08:02:57.979Z,47.40
2019-05-02T08:05:26.862Z,48.30
2019-05-02T08:07:57.332Z,48.50
2019-05-02T08:10:28.170Z,48.90
2019-05-02T08:12:58.766Z,49.60
2019-05-02T08:15:29.141Z,50.50
2019-05-02T08:17:59.552Z,50.70
2019-05-02T08:20:30.761Z,51.00
2019-05-02T08:23:01.175Z,51.40
2019-05-02T08:25:31.682Z,51.70
2019-05-02T08:28:16.018Z,51.70
2019-05-02T08:30:46.427Z,52.40
2019-05-02T08:33:16.900Z,52.40
2019-05-02T08:35:48.759Z,51.90
2019-05-02T08:38:19.194Z,51.70
2019-05-02T08:40:49.766Z,52.50
2019-05-02T08:43:20.671Z,53.20
2019-05-02T08:45:51.271Z,52.70
2019-05-02T08:48:22.849Z,53.40
2019-05-02T08:53:23.385Z,54.40
2019-05-02T08:55:53.777Z,54.10
2019-05-02T08:58:24.247Z,50.90
2019-05-02T09:00:54.806Z,46.90
2019-05-02T09:03:26.722Z,43.60
2019-05-02T09:06:05.478Z,42.10
2019-05-02T09:08:29.428Z,41.30
2019-05-02T09:10:59.929Z,41.10
2019-05-02T09:13:32.841Z,43.00
2019-05-02T09:16:05.577Z,44.60
2019-05-02T09:18:38.240Z,46.50
2019-05-02T09:21:06.824Z,47.90
2019-05-02T09:23:37.366Z,47.30
2019-05-02T09:26:07.793Z,47.30
2019-05-02T09:28:39.641Z,46.90
2019-05-02T09:31:11.974Z,45.60
2019-05-02T09:33:46.693Z,45.10
2019-05-02T09:36:14.361Z,44.60
2019-05-02T09:38:48.779Z,43.70
2019-05-02T09:41:19.391Z,42.50
2019-05-02T09:43:52.029Z,41.60
2019-05-02T09:46:23.681Z,40.60
2019-05-02T09:48:57.009Z,39.90
2019-05-02T09:51:26.326Z,38.50
2019-05-02T09:53:57.057Z,36.80
2019-05-02T09:56:28.834Z,35.40
2019-05-02T09:59:04.757Z,33.80
2019-05-02T10:01:34.292Z,32.80
2019-05-02T10:04:05.352Z,32.10
2019-05-02T10:06:35.796Z,31.30
2019-05-02T10:09:08.101Z,30.60
2019-05-02T10:11:38.813Z,29.70
2019-05-02T10:14:09.291Z,29.40
2019-05-02T10:16:39.676Z,29.50
2019-05-02T10:19:11.441Z,29.20
2019-05-02T10:21:42.295Z,28.70
2019-05-02T10:24:12.768Z,28.40
2019-05-02T10:26:43.329Z,28.30
2019-05-02T10:29:13.712Z,28.40
2019-05-02T10:31:45.752Z,28.20
2019-05-02T10:34:17.672Z,28.00
2019-05-02T10:36:54.255Z,27.90
2019-05-02T10:39:20.468Z,27.80
2019-05-02T10:41:52.611Z,27.60
2019-05-02T10:44:27.113Z,27.60
2019-05-02T10:46:58.795Z,27.50
2019-05-02T10:49:32.075Z,27.40
2019-05-02T10:52:03.080Z,27.30
2019-05-02T10:54:37.315Z,27.10
2019-05-02T10:57:05.717Z,27.10
2019-05-02T10:59:36.173Z,27.00
2019-05-02T11:02:23.672Z,26.70
2019-05-02T11:05:02.676Z,26.50
2019-05-02T11:07:33.344Z,26.50
2019-05-02T11:10:06.934Z,26.60
2019-05-02T11:12:44.148Z,26.80
2019-05-02T11:15:29.278Z,26.80
2019-05-02T11:17:59.728Z,26.70
2019-05-02T11:20:31.889Z,26.40
2019-05-02T11:23:02.605Z,26.40
2019-05-02T11:25:33.032Z,26.40
2019-05-02T11:28:07.152Z,26.30
2019-05-02T11:30:38.182Z,26.30
2019-05-02T11:33:08.604Z,26.10
2019-05-02T11:35:41.629Z,26.20
2019-05-02T11:38:33.770Z,26.10
2019-05-02T11:40:44.979Z,26.20
2019-05-02T11:43:15.375Z,26.20
2019-05-02T11:45:46.113Z,26.10
2019-05-02T11:48:19.522Z,26.10
2019-05-02T11:50:49.273Z,26.00
2019-05-02T11:53:28.488Z,26.10
2019-05-02T11:55:53.244Z,26.20
2019-05-02T11:58:23.781Z,26.10
2019-05-02T12:00:54.178Z,26.00
2019-05-02T12:03:28.153Z,25.90
2019-05-02T12:05:58.372Z,25.80
2019-05-02T12:08:29.077Z,25.70
2019-05-02T12:11:01.281Z,25.70
2019-05-02T12:13:33.125Z,25.80
2019-05-02T12:16:05.329Z,25.90
2019-05-02T12:18:35.766Z,25.80
2019-05-02T12:21:07.242Z,25.70
2019-05-02T12:23:37.656Z,25.60
2019-05-02T12:26:08.109Z,25.30
2019-05-02T12:28:40.071Z,25.30
2019-05-02T12:31:16.689Z,25.20
2019-05-02T12:33:45.595Z,24.90
2019-05-02T12:36:17.443Z,24.80
2019-05-02T12:38:47.872Z,24.60
2019-05-02T12:41:22.238Z,24.60
2019-05-02T12:43:52.527Z,24.50
2019-05-02T12:46:23.073Z,24.50
2019-05-02T12:48:53.590Z,24.30
2019-05-02T12:51:24.015Z,24.30
2019-05-02T12:53:54.782Z,24.30
2019-05-02T12:56:26.850Z,24.20
2019-05-02T12:58:57.341Z,24.20
2019-05-02T13:01:27.823Z,24.20
2019-05-02T13:03:59.898Z,24.30
2019-05-02T13:06:30.276Z,24.30
2019-05-02T13:09:02.896Z,24.40
2019-05-02T13:11:36.726Z,24.30
2019-05-02T13:14:16.839Z,24.30
2019-05-02T13:16:39.549Z,24.20
2019-05-02T13:19:11.925Z,24.20
2019-05-02T13:21:58.232Z,24.10
2019-05-02T13:24:29.503Z,24.10
2019-05-02T13:27:01.802Z,24.10
2019-05-02T13:29:33.450Z,24.10
2019-05-02T13:32:18.776Z,24.10
2019-05-02T13:34:57.526Z,24.10
2019-05-02T13:37:31.667Z,24.10
2019-05-02T13:40:06.229Z,23.90
2019-05-02T13:42:36.789Z,24.00
2019-05-02T13:45:12.740Z,24.00
2019-05-02T13:47:43.239Z,24.00
2019-05-02T13:50:14.153Z,24.00
2019-05-02T13:52:51.989Z,24.00
2019-05-02T13:55:19.727Z,24.00
2019-05-02T13:57:52.856Z,24.00
2019-05-02T14:00:24.935Z,24.00
2019-05-02T14:02:55.813Z,23.90
2019-05-02T14:05:26.242Z,23.90
2019-05-02T14:08:15.878Z,23.90
2019-05-02T14:10:52.697Z,23.90
2019-05-02T14:13:24.013Z,23.90
2019-05-02T14:15:54.539Z,23.90
2019-05-02T14:18:28.932Z,23.90
2019-05-02T14:20:57.079Z,23.80
2019-05-02T14:23:28.106Z,23.80
2019-05-02T14:25:58.544Z,23.90
2019-05-02T14:28:34.356Z,23.80
2019-05-02T14:31:02.185Z,23.80
2019-05-02T14:33:34.417Z,23.80
2019-05-02T14:36:04.874Z,23.70
2019-05-02T14:38:35.262Z,23.70
2019-05-02T14:41:12.269Z,23.60
2019-05-02T14:43:53.319Z,23.60
2019-05-02T14:46:34.139Z,23.70
2019-05-02T14:48:58.355Z,23.70
2019-05-02T14:51:29.312Z,23.60
2019-05-02T14:54:05.815Z,23.60
2019-05-02T14:56:37.539Z,23.60
2019-05-02T14:59:09.251Z,23.50
2019-05-02T15:01:38.293Z,23.50
2019-05-02T15:04:08.767Z,23.50
2019-05-02T15:06:45.392Z,23.50
2019-05-02T15:09:16.747Z,23.50
2019-05-02T15:12:02.395Z,23.50
2019-05-02T15:14:33.897Z,23.50
2019-05-02T15:17:05.205Z,23.50
2019-05-02T15:19:37.247Z,23.50
2019-05-02T15:22:07.679Z,23.40
2019-05-02T15:24:39.538Z,23.40
2019-05-02T15:27:13.640Z,23.40
2019-05-02T15:29:42.175Z,23.40
2019-05-02T15:32:17.219Z,23.40
2019-05-02T15:35:04.191Z,23.30
2019-05-02T15:37:35.965Z,23.30
2019-05-02T15:42:44.738Z,23.20
2019-05-02T15:45:15.266Z,23.20
2019-05-02T15:47:45.709Z,23.10
2019-05-02T15:50:21.984Z,23.10
2019-05-02T15:52:52.559Z,23.10
2019-05-02T15:55:23.394Z,23.00
2019-05-02T15:57:53.900Z,23.00
2019-05-02T16:00:26.877Z,23.00
2019-05-02T16:03:02.949Z,23.00
2019-05-02T16:05:29.414Z,22.90
2019-05-02T16:08:08.270Z,22.90
2019-05-02T16:10:38.360Z,22.90
2019-05-02T16:13:08.746Z,22.90
2019-05-02T16:15:37.392Z,22.90
2019-05-02T16:18:07.823Z,22.80
2019-05-02T16:20:46.982Z,22.80
2019-05-02T16:23:13.506Z,22.70
2019-05-02T16:25:44.003Z,22.70
2019-05-02T16:28:14.462Z,22.70
2019-05-02T16:30:47.654Z,22.70
2019-05-02T16:33:20.726Z,22.60
2019-05-02T16:35:52.812Z,22.60
2019-05-02T16:38:26.787Z,22.60
2019-05-02T16:40:55.772Z,22.50
2019-05-02T16:43:29.400Z,22.40
2019-05-02T16:46:01.644Z,22.40
2019-05-02T16:48:37.484Z,22.40
2019-05-02T16:51:08.205Z,22.40
2019-05-02T16:53:36.281Z,22.30
2019-05-02T16:56:07.228Z,22.30
2019-05-02T16:58:42.125Z,22.20
2019-05-02T17:01:10.070Z,22.20
2019-05-02T17:03:42.384Z,22.10
2019-05-02T17:06:16.920Z,22.10
2019-05-02T17:08:49.539Z,22.10
2019-05-02T17:11:22.885Z,22.00
2019-05-02T17:13:53.497Z,22.00
2019-05-02T17:16:23.888Z,21.90
2019-05-02T17:18:56.531Z,21.90
2019-05-02T17:21:33.701Z,21.90
2019-05-02T17:24:00.228Z,21.80
2019-05-02T17:26:31.779Z,21.70
2019-05-02T17:29:02.571Z,21.60
2019-05-02T17:31:33.187Z,21.50
2019-05-02T17:34:04.862Z,21.50
2019-05-02T17:36:35.279Z,21.40
2019-05-02T17:39:08.318Z,21.30
2019-05-02T17:41:42.229Z,21.10
2019-05-02T17:44:12.898Z,21.10
2019-05-02T17:46:43.143Z,21.00
2019-05-02T17:49:14.514Z,20.80
2019-05-02T17:52:05.763Z,20.80
2019-05-02T17:54:34.778Z,20.70
2019-05-02T17:57:06.672Z,20.60
2019-05-02T17:59:37.710Z,20.50
2019-05-02T18:02:15.647Z,20.50
2019-05-02T18:04:46.669Z,20.40
2019-05-02T18:07:18.039Z,20.30
2019-05-02T18:09:47.973Z,20.20
2019-05-02T18:12:18.437Z,20.20
2019-05-02T18:14:51.414Z,20.10
2019-05-02T18:17:22.010Z,20.00
2019-05-02T18:19:56.779Z,19.90
2019-05-02T18:22:26.483Z,19.90
2019-05-02T18:24:58.600Z,19.80
2019-05-02T18:27:29.123Z,19.80
2019-05-02T18:29:59.541Z,19.70
2019-05-02T18:32:29.989Z,19.70
2019-05-02T18:35:02.502Z,19.70
2019-05-02T18:37:32.679Z,19.60
2019-05-02T18:40:08.040Z,19.60
2019-05-02T18:42:38.417Z,19.50
2019-05-02T18:45:12.663Z,19.50
2019-05-02T18:47:44.596Z,19.50
2019-05-02T18:50:36.769Z,19.50
2019-05-02T18:53:07.214Z,19.40
2019-05-02T18:55:38.107Z,19.40
2019-05-02T18:58:12.787Z,19.40
2019-05-02T19:00:43.181Z,19.50
2019-05-02T19:03:17.071Z,19.50
2019-05-02T19:05:51.480Z,19.60
2019-05-02T19:08:30.685Z,19.60
2019-05-02T19:11:05.307Z,19.60
2019-05-02T19:13:25.892Z,19.70
2019-05-02T19:15:57.975Z,19.70
2019-05-02T19:18:28.393Z,19.70
2019-05-02T19:21:02.797Z,19.70
2019-05-02T19:23:34.195Z,19.70
2019-05-02T19:26:10.179Z,19.70
2019-05-02T19:28:46.588Z,19.60
2019-05-02T19:31:18.734Z,19.60
2019-05-02T19:33:49.156Z,19.60
2019-05-02T19:36:24.442Z,19.60
2019-05-02T19:38:56.860Z,19.60
2019-05-02T19:41:24.787Z,19.60
2019-05-02T19:43:55.240Z,19.60
2019-05-02T19:46:34.584Z,19.50
2019-05-02T19:48:57.839Z,19.50
2019-05-02T19:51:28.294Z,19.50
2019-05-02T19:53:59.716Z,19.50
2019-05-02T19:56:33.453Z,19.40
2019-05-02T19:59:03.025Z,19.30
2019-05-02T20:01:33.682Z,19.20
2019-05-02T20:04:06.043Z,19.20
2019-05-02T20:06:36.260Z,19.10
2019-05-02T20:09:08.531Z,19.10
2019-05-02T20:11:39.070Z,19.10
2019-05-02T20:14:09.874Z,19.10
2019-05-02T20:16:45.945Z,19.10
2019-05-02T20:19:17.278Z,19.10
2019-05-02T20:21:51.935Z,19.10
2019-05-02T20:24:22.673Z,19.10
2019-05-02T20:26:56.131Z,19.10
2019-05-02T20:29:25.393Z,19.10
2019-05-02T20:31:55.799Z,19.10
2019-05-02T20:34:26.444Z,19.20
2019-05-02T20:36:57.007Z,19.20
2019-05-02T20:39:27.548Z,19.20
2019-05-02T20:41:58.790Z,19.20
2019-05-02T20:44:29.273Z,19.10
2019-05-02T20:46:59.705Z,19.10
2019-05-02T20:49:30.124Z,19.20
2019-05-02T20:52:02.393Z,19.10
2019-05-02T20:54:33.011Z,19.10
2019-05-02T20:57:03.457Z,19.10
2019-05-02T20:59:35.376Z,19.10
2019-05-02T21:02:06.203Z,19.00
2019-05-02T21:04:36.613Z,19.00
2019-05-02T21:07:09.952Z,19.00
2019-05-02T21:09:42.121Z,18.90
2019-05-02T21:12:12.698Z,18.90
2019-05-02T21:14:43.152Z,18.90
2019-05-02T21:17:13.606Z,18.90
2019-05-02T21:19:44.088Z,18.90
2019-05-02T21:22:17.390Z,18.80
2019-05-02T21:24:48.683Z,18.80
2019-05-02T21:27:19.078Z,18.70
2019-05-02T21:29:49.530Z,18.60
2019-05-02T21:32:20.030Z,18.50
2019-05-02T21:34:51.996Z,18.50
2019-05-02T21:37:24.038Z,18.40
2019-05-02T21:39:54.457Z,18.30
2019-05-02T21:42:24.839Z,18.20
2019-05-02T21:44:55.330Z,18.10
2019-05-02T21:47:25.830Z,18.00
2019-05-02T21:49:57.805Z,17.90
2019-05-02T21:52:36.930Z,17.80
2019-05-02T21:55:09.531Z,17.80
2019-05-02T21:57:39.920Z,17.80
2019-05-02T22:00:14.042Z,17.70
2019-05-02T22:02:44.745Z,17.70
2019-05-02T22:05:15.275Z,17.80
2019-05-02T22:07:45.778Z,17.80
2019-05-02T22:10:16.223Z,17.80
2019-05-02T22:12:46.607Z,17.70
2019-05-02T22:15:17.033Z,17.70
2019-05-02T22:17:47.431Z,17.80
2019-05-02T22:20:18.024Z,17.70
2019-05-02T22:22:48.398Z,17.70
2019-05-02T22:25:18.890Z,17.70
2019-05-02T22:27:49.346Z,17.70
2019-05-02T22:30:21.440Z,17.70
2019-05-02T22:32:54.215Z,17.60
2019-05-02T22:35:24.034Z,17.70
2019-05-02T22:38:02.159Z,17.60
2019-05-02T22:40:32.429Z,17.70
2019-05-02T22:43:04.614Z,17.70
2019-05-02T22:45:35.127Z,17.60
2019-05-02T22:48:05.496Z,17.60
2019-05-02T22:50:35.929Z,17.60
2019-05-02T22:53:07.768Z,17.60
2019-05-02T22:55:38.354Z,17.60
2019-05-02T22:58:08.810Z,17.50
2019-05-02T23:00:41.536Z,17.50
2019-05-02T23:03:12.537Z,17.50
2019-05-02T23:05:43.282Z,17.50
2019-05-02T23:08:13.686Z,17.50
2019-05-02T23:10:44.096Z,17.50
2019-05-02T23:13:14.599Z,17.50
2019-05-02T23:15:45.026Z,17.50
2019-05-02T23:18:15.430Z,17.50
2019-05-02T23:20:45.838Z,17.50
2019-05-02T23:23:16.266Z,17.50
2019-05-02T23:26:05.829Z,17.50
2019-05-02T23:28:42.224Z,17.50
2019-05-02T23:31:14.115Z,17.60
2019-05-02T23:34:01.861Z,17.60
2019-05-02T23:36:32.797Z,17.60
2019-05-02T23:39:05.116Z,17.60
2019-05-02T23:41:35.532Z,17.50
2019-05-02T23:44:06.054Z,17.50
2019-05-02T23:46:39.227Z,17.50
2019-05-02T23:49:09.628Z,17.40
2019-05-02T23:51:40.122Z,17.40
2019-05-02T23:54:12.923Z,17.40
2019-05-02T23:56:43.566Z,17.40
2019-05-02T23:59:13.924Z,17.40
